Time;durP1;ratioP1;P1;durP2;ratioP2;P2;SDS_P1;SDS_P2;PMS_P1;PMS_P2;Temp;Humidity;BMP_temperature;BMP_pressure;BME280_temperature;BME280_humidity;BME280_pressure;Samples;Min_cycle;Max_cycle;Signal;HPM_P1;HPM_P2
2023/06/05 00:00:41;;;;;;;1.10;1.00;;;14.20;55.10;;;;;;5011636;28;20645;-55
2023/06/05 00:03:11;;;;;;;1.20;0.98;;;14.10;55.10;;;;;;5012032;28;20227;-51
2023/06/05 00:05:44;;;;;;;1.85;1.10;;;14.20;55.20;;;;;;5011794;28;20689;-51
2023/06/05 00:08:14;;;;;;;1.20;0.98;;;14.20;55.20;;;;;;5012054;28;20201;-54
2023/06/05 00:10:45;;;;;;;1.13;1.02;;;14.20;55.20;;;;;;5011609;28;20204;-54
2023/06/05 00:13:16;;;;;;;2.08;1.48;;;14.20;55.20;;;;;;5011007;28;20188;-50
2023/06/05 00:15:47;;;;;;;1.45;1.10;;;14.20;55.20;;;;;;5010916;28;20205;-55
2023/06/05 00:18:18;;;;;;;1.30;1.10;;;14.20;55.20;;;;;;5011544;28;20244;-55
2023/06/05 00:20:51;;;;;;;1.10;1.00;;;14.20;55.20;;;;;;5011843;28;20243;-50
2023/06/05 00:23:21;;;;;;;1.10;1.00;;;14.20;55.20;;;;;;5011415;28;20208;-55
2023/06/05 00:25:52;;;;;;;1.50;1.08;;;14.20;55.20;;;;;;5014082;28;20302;-47
2023/06/05 00:28:24;;;;;;;1.55;0.90;;;14.20;55.20;;;;;;5015423;28;20595;-52
2023/06/05 00:30:54;;;;;;;1.40;1.08;;;14.20;55.20;;;;;;5015657;28;20209;-51
2023/06/05 00:33:25;;;;;;;1.20;1.10;;;14.20;55.20;;;;;;5012425;28;20192;-56
2023/06/05 00:35:57;;;;;;;1.40;1.15;;;14.20;55.30;;;;;;5015081;28;20587;-52
2023/06/05 00:38:28;;;;;;;1.85;1.08;;;14.20;55.20;;;;;;5015273;28;20196;-52
2023/06/05 00:40:59;;;;;;;1.40;1.13;;;14.20;55.30;;;;;;5015216;28;20224;-54
2023/06/05 00:43:29;;;;;;;2.20;1.42;;;14.20;55.30;;;;;;5015190;28;20196;-51
2023/06/05 00:46:04;;;;;;;1.20;1.10;;;14.20;55.30;;;;;;5015246;28;20221;-54
2023/06/05 00:48:36;;;;;;;1.80;1.27;;;14.20;55.30;;;;;;5014730;28;20551;-53
2023/06/05 00:51:10;;;;;;;1.25;1.10;;;14.20;55.30;;;;;;5014792;28;20611;-53
2023/06/05 00:53:41;;;;;;;1.40;1.15;;;14.20;55.30;;;;;;5014780;28;20567;-51
2023/06/05 00:56:12;;;;;;;1.30;1.10;;;14.20;55.30;;;;;;5012773;28;20204;-53
2023/06/05 00:58:43;;;;;;;1.30;0.95;;;14.20;55.30;;;;;;5014348;28;20217;-56
2023/06/05 01:01:15;;;;;;;1.25;1.02;;;14.30;55.30;;;;;;5015114;28;20668;-52
2023/06/05 01:03:47;;;;;;;1.80;1.23;;;14.30;55.30;;;;;;5015017;28;20200;-56
2023/06/05 01:06:19;;;;;;;1.83;1.27;;;14.30;55.30;;;;;;5014820;28;20207;-54
2023/06/05 01:08:50;;;;;;;1.52;1.42;;;14.30;55.30;;;;;;5015012;28;20197;-49
2023/06/05 01:11:27;;;;;;;1.55;1.30;;;14.30;55.30;;;;;;5014723;28;20236;-51
2023/06/05 01:14:05;;;;;;;1.13;1.02;;;14.30;55.30;;;;;;5000514;28;20241;-55
2023/06/05 01:16:36;;;;;;;1.40;1.00;;;14.30;55.30;;;;;;5001849;28;20192;-53
2023/06/05 01:19:07;;;;;;;1.20;1.10;;;14.30;55.30;;;;;;5014318;28;20193;-52
2023/06/05 01:21:40;;;;;;;1.60;1.25;;;14.30;55.30;;;;;;5014606;28;20208;-56
2023/06/05 01:24:13;;;;;;;1.23;1.10;;;14.30;55.30;;;;;;5014000;28;20221;-56
2023/06/05 01:27:00;;;;;;;1.27;1.15;;;14.30;55.30;;;;;;5014551;28;20200;-57
2023/06/05 01:29:36;;;;;;;1.38;1.27;;;14.30;55.30;;;;;;5014349;28;20245;-55
2023/06/05 01:32:16;;;;;;;1.67;1.30;;;14.30;55.30;;;;;;5014116;28;20228;-60
2023/06/05 01:34:48;;;;;;;1.67;1.40;;;14.30;55.40;;;;;;5014299;28;20223;-56
2023/06/05 01:37:25;;;;;;;2.17;1.38;;;14.30;55.40;;;;;;5013338;28;20232;-56
2023/06/05 01:39:59;;;;;;;2.38;1.60;;;14.30;55.30;;;;;;5013903;28;20744;-53
2023/06/05 01:42:31;;;;;;;1.92;1.48;;;14.40;55.40;;;;;;5013684;28;20200;-54
2023/06/05 01:45:03;;;;;;;1.50;1.40;;;14.40;55.40;;;;;;5013155;28;20221;-51
2023/06/05 01:47:34;;;;;;;2.55;1.45;;;14.40;55.40;;;;;;5014075;28;20201;-51
2023/06/05 01:50:04;;;;;;;2.45;1.75;;;14.40;55.40;;;;;;5013840;28;20680;-55
2023/06/05 01:52:35;;;;;;;2.88;1.60;;;14.40;55.40;;;;;;5013978;28;20217;-53
2023/06/05 01:55:10;;;;;;;2.45;1.65;;;14.40;55.40;;;;;;5013581;28;20267;-55
2023/06/05 01:57:40;;;;;;;1.95;1.48;;;14.40;55.40;;;;;;5013742;28;20227;-50
2023/06/05 02:00:13;;;;;;;2.05;1.58;;;14.40;55.40;;;;;;5013288;28;20791;-51
2023/06/05 02:02:45;;;;;;;2.00;1.55;;;14.40;55.40;;;;;;5013993;28;20193;-50
2023/06/05 02:05:16;;;;;;;2.33;1.70;;;14.40;55.40;;;;;;5013804;28;20231;-53
2023/06/05 02:07:53;;;;;;;2.70;1.90;;;14.40;55.40;;;;;;5013745;28;20197;-53
2023/06/05 02:10:25;;;;;;;2.67;1.60;;;14.40;55.40;;;;;;5013392;28;20258;-55
2023/06/05 02:12:56;;;;;;;3.28;1.45;;;14.40;55.50;;;;;;5013611;28;20712;-57
2023/06/05 02:15:28;;;;;;;2.05;1.50;;;14.50;55.50;;;;;;5012921;28;20221;-55
2023/06/05 02:18:00;;;;;;;2.80;1.67;;;14.40;55.40;;;;;;5012980;28;20189;-57
2023/06/05 02:20:31;;;;;;;3.60;1.77;;;14.40;55.50;;;;;;5012869;28;20204;-57
2023/06/05 02:23:01;;;;;;;2.45;1.50;;;14.40;55.50;;;;;;5013453;28;20205;-53
2023/06/05 02:25:34;;;;;;;2.30;1.92;;;14.50;55.60;;;;;;5013459;28;20629;-52
2023/06/05 02:28:05;;;;;;;1.80;1.63;;;14.50;55.50;;;;;;5012544;28;20196;-53
2023/06/05 02:30:37;;;;;;;2.45;1.90;;;14.50;55.50;;;;;;5010456;28;20193;-53
2023/06/05 02:33:08;;;;;;;1.90;1.70;;;14.50;55.50;;;;;;5012986;28;20229;-52
2023/06/05 02:35:39;;;;;;;2.22;1.75;;;14.50;55.50;;;;;;5012955;28;20227;-54
2023/06/05 02:38:12;;;;;;;3.28;2.10;;;14.50;55.50;;;;;;5013139;28;20228;-56
2023/06/05 02:40:44;;;;;;;2.92;1.90;;;14.50;55.40;;;;;;5013029;28;20212;-51
2023/06/05 02:43:17;;;;;;;3.92;2.05;;;14.50;55.50;;;;;;5012912;28;20638;-52
2023/06/05 02:45:48;;;;;;;2.78;2.20;;;14.50;55.50;;;;;;5012284;28;20221;-53
2023/06/05 02:48:19;;;;;;;3.10;2.17;;;14.50;55.50;;;;;;5012013;28;20196;-56
2023/06/05 02:50:50;;;;;;;2.90;1.83;;;14.50;55.50;;;;;;5012645;28;20200;-53
2023/06/05 02:53:20;;;;;;;2.42;1.85;;;14.50;55.50;;;;;;5012883;28;20722;-53
2023/06/05 02:55:53;;;;;;;2.10;1.90;;;14.50;55.50;;;;;;5012946;28;20228;-53
2023/06/05 02:58:23;;;;;;;2.97;1.90;;;14.50;55.50;;;;;;5012535;28;20220;-55
2023/06/05 03:00:55;;;;;;;2.42;1.77;;;14.50;55.50;;;;;;5011972;28;20532;-53
2023/06/05 03:03:26;;;;;;;1.90;1.77;;;14.60;55.60;;;;;;5012461;28;20279;-54
2023/06/05 03:06:01;;;;;;;3.20;2.20;;;14.60;55.60;;;;;;5001679;28;20213;-53
2023/06/05 03:08:32;;;;;;;3.85;2.63;;;14.60;55.60;;;;;;5006089;28;20613;-50
2023/06/05 03:11:06;;;;;;;2.20;1.80;;;14.60;55.50;;;;;;5011617;28;20185;-56
2023/06/05 03:13:37;;;;;;;2.85;2.20;;;14.60;55.50;;;;;;5012151;28;20228;-54
2023/06/05 03:16:07;;;;;;;2.50;2.08;;;14.60;55.60;;;;;;5011412;28;20227;-55
2023/06/05 03:18:38;;;;;;;3.08;2.00;;;14.60;55.50;;;;;;5012218;28;20212;-55
2023/06/05 03:21:21;;;;;;;2.42;2.08;;;14.60;55.50;;;;;;5109235;27;20524;-53
2023/06/05 03:23:52;;;;;;;2.90;2.28;;;14.60;55.50;;;;;;5109011;28;20220;-52
2023/06/05 03:26:24;;;;;;;2.72;2.20;;;14.60;55.60;;;;;;5108444;28;20197;-56
2023/06/05 03:28:55;;;;;;;3.58;2.50;;;14.60;55.60;;;;;;5088736;28;20194;-54
2023/06/05 03:31:26;;;;;;;4.28;2.40;;;14.60;55.50;;;;;;5088466;28;20201;-52
2023/06/05 03:33:58;;;;;;;2.78;2.20;;;14.60;55.60;;;;;;5088962;28;20212;-56
2023/06/05 03:36:30;;;;;;;3.65;2.33;;;14.60;55.60;;;;;;5088652;28;20194;-53
2023/06/05 03:39:01;;;;;;;2.60;2.03;;;14.60;55.60;;;;;;5088725;28;20229;-55
2023/06/05 03:41:31;;;;;;;5.13;2.50;;;14.60;55.60;;;;;;5088849;28;20255;-51
2023/06/05 03:44:03;;;;;;;3.67;2.28;;;14.60;55.60;;;;;;5087667;28;20194;-53
2023/06/05 03:46:34;;;;;;;3.88;2.45;;;14.60;55.60;;;;;;5088469;28;20226;-54
2023/06/05 03:49:08;;;;;;;3.10;2.22;;;14.60;55.60;;;;;;5088676;28;20198;-56
2023/06/05 03:51:41;;;;;;;3.17;2.25;;;14.60;55.50;;;;;;5091024;28;20280;-55
2023/06/05 03:54:12;;;;;;;3.17;2.55;;;14.70;55.60;;;;;;5108777;28;20274;-54
2023/06/05 03:56:49;;;;;;;3.88;2.60;;;14.60;55.50;;;;;;5105227;28;20198;-57
2023/06/05 03:59:22;;;;;;;3.88;2.50;;;14.60;55.50;;;;;;5087472;28;20674;-51
2023/06/05 04:01:53;;;;;;;3.20;2.50;;;14.60;55.50;;;;;;5088183;28;20209;-53
2023/06/05 04:04:23;;;;;;;2.42;2.13;;;14.60;55.50;;;;;;5088433;28;20904;-55
2023/06/05 04:06:58;;;;;;;4.00;2.80;;;14.70;55.60;;;;;;5088110;28;20194;-56
2023/06/05 04:09:28;;;;;;;2.60;2.33;;;14.60;55.60;;;;;;5087751;28;20194;-55
2023/06/05 04:11:59;;;;;;;4.30;2.65;;;14.60;55.60;;;;;;5087926;28;20190;-54
2023/06/05 04:14:30;;;;;;;4.00;2.40;;;14.60;55.60;;;;;;5096110;28;20241;-51
2023/06/05 04:17:00;;;;;;;4.65;2.85;;;14.60;55.60;;;;;;5108243;28;20211;-50
2023/06/05 04:19:31;;;;;;;2.80;2.38;;;14.60;55.60;;;;;;5108201;28;20221;-55
2023/06/05 04:22:04;;;;;;;3.90;2.88;;;14.70;55.70;;;;;;5108149;28;20197;-54
2023/06/05 04:24:34;;;;;;;4.05;2.63;;;14.70;55.60;;;;;;5107965;28;20604;-51
2023/06/05 04:27:05;;;;;;;3.72;2.45;;;14.70;55.60;;;;;;5101584;28;20220;-52
2023/06/05 04:29:36;;;;;;;4.40;2.95;;;14.70;55.60;;;;;;5086930;28;20198;-50
2023/06/05 04:32:07;;;;;;;2.90;2.60;;;14.70;55.60;;;;;;5077163;28;20199;-53
2023/06/05 04:34:38;;;;;;;5.10;2.80;;;14.70;55.60;;;;;;5074274;28;20686;-49
2023/06/05 04:37:10;;;;;;;3.95;2.70;;;14.70;55.60;;;;;;5089790;28;20194;-52
2023/06/05 04:39:41;;;;;;;3.58;3.03;;;14.70;55.60;;;;;;5093999;28;20229;-48
2023/06/05 04:42:11;;;;;;;3.55;2.83;;;14.70;55.60;;;;;;5094153;28;20263;-51
2023/06/05 04:44:42;;;;;;;2.95;2.42;;;14.70;55.60;;;;;;5093403;28;20217;-53
2023/06/05 04:47:13;;;;;;;4.68;3.05;;;14.70;55.60;;;;;;5094127;28;20191;-54
2023/06/05 04:49:43;;;;;;;4.43;2.95;;;14.70;55.60;;;;;;5093819;28;20209;-49
2023/06/05 04:52:16;;;;;;;3.47;2.78;;;14.70;55.60;;;;;;5093825;28;20190;-54
2023/06/05 04:54:47;;;;;;;3.95;2.75;;;14.70;55.60;;;;;;5093777;28;20690;-49
2023/06/05 04:57:18;;;;;;;4.05;3.03;;;14.70;55.60;;;;;;5085792;28;20533;-52
2023/06/05 04:59:49;;;;;;;3.88;3.00;;;14.70;55.60;;;;;;5073221;28;20868;-52
2023/06/05 05:02:20;;;;;;;3.53;3.00;;;14.70;55.60;;;;;;5075972;28;20219;-54
2023/06/05 05:04:51;;;;;;;3.83;3.13;;;14.70;55.60;;;;;;5073231;28;20219;-48
2023/06/05 05:07:26;;;;;;;3.45;2.90;;;14.70;55.60;;;;;;5080401;28;20220;-53
2023/06/05 05:09:56;;;;;;;4.55;3.10;;;14.70;55.60;;;;;;5093957;28;20197;-54
2023/06/05 05:12:27;;;;;;;5.55;3.30;;;14.70;55.60;;;;;;5093664;28;20654;-52
2023/06/05 05:14:58;;;;;;;5.38;3.63;;;14.70;55.60;;;;;;5092890;28;20596;-52
2023/06/05 05:17:28;;;;;;;4.40;3.25;;;14.70;56.10;;;;;;5093310;28;20198;-52
2023/06/05 05:19:59;;;;;;;5.35;3.15;;;14.70;55.50;;;;;;5093803;28;20271;-55
2023/06/05 05:22:31;;;;;;;5.22;3.40;;;14.70;55.50;;;;;;5093333;28;20236;-50
2023/06/05 05:25:02;;;;;;;4.35;3.30;;;14.70;55.50;;;;;;5093106;28;20703;-50
2023/06/05 05:27:33;;;;;;;4.75;3.00;;;14.70;55.50;;;;;;5082391;28;20195;-53
2023/06/05 05:30:03;;;;;;;5.43;3.00;;;14.70;55.50;;;;;;5072455;28;20697;-54
2023/06/05 05:32:34;;;;;;;4.57;3.13;;;14.70;55.50;;;;;;5072885;28;20226;-51
2023/06/05 05:35:05;;;;;;;5.43;3.63;;;14.70;55.60;;;;;;5072995;28;20222;-54
2023/06/05 05:37:37;;;;;;;4.78;3.45;;;14.70;55.60;;;;;;5073389;28;20198;-55
2023/06/05 05:40:08;;;;;;;5.47;3.42;;;14.70;56.20;;;;;;5072548;28;20232;-54
2023/06/05 05:42:39;;;;;;;4.82;3.30;;;14.70;55.50;;;;;;5071408;28;20202;-51
2023/06/05 05:45:11;;;;;;;5.25;3.47;;;14.70;55.60;;;;;;5072618;28;20272;-52
2023/06/05 05:47:42;;;;;;;5.03;3.25;;;14.70;55.50;;;;;;5072923;28;20201;-55
2023/06/05 05:50:13;;;;;;;4.20;2.97;;;14.70;55.50;;;;;;5072668;28;20628;-54
2023/06/05 05:52:47;;;;;;;5.05;3.47;;;14.70;55.50;;;;;;5072577;28;20202;-51
2023/06/05 05:55:18;;;;;;;5.30;3.15;;;14.70;55.50;;;;;;5081328;28;20241;-52
2023/06/05 05:57:48;;;;;;;4.45;3.00;;;14.70;55.50;;;;;;5079411;28;20207;-53
2023/06/05 06:00:20;;;;;;;6.28;3.97;;;14.70;55.40;;;;;;5071992;28;20694;-54
2023/06/05 06:02:52;;;;;;;4.32;3.17;;;14.70;55.50;;;;;;5071977;28;20256;-53
2023/06/05 06:05:23;;;;;;;5.18;3.30;;;14.70;55.50;;;;;;5071662;28;20214;-52
2023/06/05 06:07:55;;;;;;;4.97;3.30;;;14.70;55.50;;;;;;5079562;28;20708;-53
2023/06/05 06:10:26;;;;;;;4.47;3.33;;;14.70;55.50;;;;;;5092414;28;20220;-55
2023/06/05 06:12:57;;;;;;;5.30;3.40;;;14.70;55.50;;;;;;5092098;28;20277;-54
2023/06/05 06:15:27;;;;;;;5.07;3.20;;;14.70;55.50;;;;;;5092231;28;20225;-52
2023/06/05 06:17:59;;;;;;;4.45;3.53;;;14.70;55.50;;;;;;5092546;28;20198;-52
2023/06/05 06:20:30;;;;;;;5.05;3.20;;;14.70;55.50;;;;;;5092365;28;20257;-52
2023/06/05 06:23:02;;;;;;;4.38;3.10;;;14.70;55.50;;;;;;5092511;28;20201;-52
2023/06/05 06:25:33;;;;;;;5.10;3.65;;;14.70;55.50;;;;;;5092204;28;20214;-52
2023/06/05 06:28:04;;;;;;;4.40;3.15;;;14.70;55.50;;;;;;5076917;28;20211;-51
2023/06/05 06:30:34;;;;;;;4.82;3.42;;;14.70;55.50;;;;;;5071657;28;20206;-52
2023/06/05 06:33:05;;;;;;;5.47;3.35;;;14.70;55.40;;;;;;5089225;28;20556;-54
2023/06/05 06:35:36;;;;;;;5.55;3.55;;;14.70;55.40;;;;;;5092681;28;20249;-55
2023/06/05 06:38:09;;;;;;;4.65;3.42;;;14.70;55.40;;;;;;5092181;28;20201;-53
2023/06/05 06:40:39;;;;;;;4.88;3.47;;;14.70;55.50;;;;;;5091932;28;20218;-55
2023/06/05 06:43:10;;;;;;;4.85;3.28;;;14.70;55.40;;;;;;5091436;28;20202;-53
2023/06/05 06:45:41;;;;;;;4.18;3.20;;;14.70;55.40;;;;;;5091767;28;20218;-53
2023/06/05 06:48:11;;;;;;;4.80;3.15;;;14.70;55.50;;;;;;5091739;28;20190;-54
2023/06/05 06:50:42;;;;;;;4.00;2.90;;;14.70;55.50;;;;;;5091501;28;20194;-52
2023/06/05 06:53:15;;;;;;;3.55;3.17;;;14.70;55.50;;;;;;5091437;28;20552;-53
2023/06/05 06:55:46;;;;;;;4.43;3.25;;;14.70;55.50;;;;;;5091235;28;20217;-51
2023/06/05 06:58:17;;;;;;;4.15;3.10;;;14.70;55.60;;;;;;5076738;28;20241;-55
2023/06/05 07:00:49;;;;;;;3.65;3.08;;;14.70;55.60;;;;;;5091174;28;20748;-55
2023/06/05 07:03:19;;;;;;;4.55;3.00;;;14.70;55.50;;;;;;5091339;28;20697;-54
2023/06/05 07:05:50;;;;;;;3.60;2.70;;;14.70;55.50;;;;;;5091338;28;20218;-54
2023/06/05 07:08:23;;;;;;;3.15;2.63;;;14.70;55.50;;;;;;5091520;28;20194;-52
2023/06/05 07:10:55;;;;;;;4.38;2.80;;;14.70;55.50;;;;;;5087739;28;20187;-53
2023/06/05 07:13:26;;;;;;;4.88;3.22;;;14.70;55.50;;;;;;5070867;28;20248;-54
2023/06/05 07:15:56;;;;;;;3.90;2.75;;;14.70;55.40;;;;;;5070943;28;20218;-51
2023/06/05 07:18:27;;;;;;;3.55;2.65;;;14.70;55.40;;;;;;5071431;28;20674;-51
2023/06/05 07:20:58;;;;;;;4.43;2.78;;;14.70;55.40;;;;;;5071281;28;20215;-55
2023/06/05 07:23:30;;;;;;;4.07;3.17;;;14.70;55.50;;;;;;5072062;28;20191;-53
2023/06/05 07:26:01;;;;;;;4.10;2.72;;;14.70;55.50;;;;;;5081923;28;20689;-55
2023/06/05 07:28:32;;;;;;;4.38;2.97;;;14.70;55.50;;;;;;5072073;28;20268;-54
2023/06/05 07:31:03;;;;;;;3.30;2.70;;;14.60;55.50;;;;;;5070869;28;20685;-56
2023/06/05 07:33:34;;;;;;;4.40;2.88;;;14.60;55.50;;;;;;5070724;28;20199;-53
2023/06/05 07:36:04;;;;;;;4.22;2.70;;;14.60;55.50;;;;;;5071071;28;20210;-53
2023/06/05 07:38:38;;;;;;;3.85;2.50;;;14.70;55.60;;;;;;5071021;28;20199;-55
2023/06/05 07:41:09;;;;;;;5.40;2.80;;;14.70;55.60;;;;;;5070662;28;20227;-53
2023/06/05 07:43:42;;;;;;;4.32;2.83;;;14.70;55.60;;;;;;5070796;28;20209;-54
2023/06/05 07:46:14;;;;;;;3.40;3.03;;;14.70;55.50;;;;;;5071772;28;20556;-54
2023/06/05 07:48:45;;;;;;;3.80;2.95;;;14.70;55.50;;;;;;5090867;28;20202;-53
2023/06/05 07:51:18;;;;;;;4.07;2.60;;;14.70;55.50;;;;;;5090743;28;20563;-56
2023/06/05 07:53:50;;;;;;;4.10;2.65;;;14.70;55.50;;;;;;5090967;28;20190;-56
2023/06/05 07:56:23;;;;;;;3.70;2.58;;;14.70;55.50;;;;;;5089980;28;20661;-56
2023/06/05 07:58:54;;;;;;;3.35;2.42;;;14.70;55.50;;;;;;5079696;28;20597;-55
2023/06/05 08:01:25;;;;;;;3.42;2.85;;;14.70;55.40;;;;;;5090406;28;20226;-54
2023/06/05 08:03:56;;;;;;;3.50;2.42;;;14.70;55.50;;;;;;5090499;28;20182;-53
2023/06/05 08:06:27;;;;;;;3.92;2.80;;;14.60;55.50;;;;;;5092168;28;20234;-54
2023/06/05 08:09:00;;;;;;;3.72;2.72;;;14.60;55.40;;;;;;5094517;28;20198;-55
2023/06/05 08:11:31;;;;;;;3.95;2.78;;;14.70;55.50;;;;;;5094164;28;20657;-55
2023/06/05 08:14:01;;;;;;;3.10;2.30;;;14.60;55.50;;;;;;5094470;28;20661;-51
2023/06/05 08:16:32;;;;;;;4.20;2.63;;;14.60;55.50;;;;;;5094569;28;20260;-54
2023/06/05 08:19:03;;;;;;;3.63;2.70;;;14.60;55.50;;;;;;5094559;28;20670;-54
2023/06/05 08:21:33;;;;;;;4.03;3.10;;;14.60;55.50;;;;;;5094143;28;20334;-51
2023/06/05 08:24:06;;;;;;;4.50;2.72;;;14.70;55.60;;;;;;5093834;28;20191;-55
2023/06/05 08:26:37;;;;;;;3.63;2.50;;;14.70;55.60;;;;;;5079053;28;20191;-56
2023/06/05 08:29:08;;;;;;;3.35;2.25;;;14.60;55.50;;;;;;5074193;28;20195;-53
2023/06/05 08:31:39;;;;;;;3.30;2.50;;;14.70;55.50;;;;;;5074213;28;20202;-55
2023/06/05 08:34:10;;;;;;;2.80;2.50;;;14.60;55.50;;;;;;5073932;28;20678;-55
2023/06/05 08:36:42;;;;;;;3.17;2.20;;;14.70;55.50;;;;;;5074329;28;20230;-50
2023/06/05 08:39:15;;;;;;;2.63;2.42;;;14.70;55.50;;;;;;5073417;28;20222;-48
2023/06/05 08:41:46;;;;;;;2.80;2.45;;;14.70;56.20;;;;;;5072932;28;20279;-50
2023/06/05 08:44:17;;;;;;;2.72;2.33;;;14.70;55.60;;;;;;5073722;28;20222;-48
2023/06/05 08:46:48;;;;;;;3.30;2.40;;;14.60;55.50;;;;;;5073652;28;20328;-51
2023/06/05 08:49:22;;;;;;;4.28;2.63;;;14.60;55.50;;;;;;5074054;28;20206;-50
2023/06/05 08:51:56;;;;;;;3.40;2.40;;;14.70;55.60;;;;;;5073955;28;20195;-53
2023/06/05 08:54:28;;;;;;;2.75;2.35;;;14.60;55.60;;;;;;5073594;28;20215;-52
2023/06/05 08:57:01;;;;;;;3.25;2.83;;;14.60;55.60;;;;;;5080523;28;20282;-53
2023/06/05 08:59:32;;;;;;;2.95;2.30;;;14.60;55.60;;;;;;5073560;28;20290;-56
2023/06/05 09:02:04;;;;;;;2.72;2.30;;;14.60;55.60;;;;;;5073426;28;20230;-53
2023/06/05 09:04:35;;;;;;;3.45;2.20;;;14.60;55.60;;;;;;5080626;28;20224;-54
2023/06/05 09:07:06;;;;;;;4.68;2.47;;;14.60;55.60;;;;;;5093788;28;20294;-53
2023/06/05 09:09:39;;;;;;;2.70;2.50;;;14.60;55.60;;;;;;5093240;28;20198;-54
2023/06/05 09:12:11;;;;;;;3.60;2.60;;;14.70;55.60;;;;;;5086385;28;20203;-50
2023/06/05 09:14:42;;;;;;;3.22;2.17;;;14.60;55.60;;;;;;5073492;28;20226;-53
2023/06/05 09:17:16;;;;;;;2.50;2.00;;;14.60;55.60;;;;;;5073581;28;20199;-51
2023/06/05 09:19:47;;;;;;;3.03;2.38;;;14.60;55.60;;;;;;5073313;28;20202;-51
2023/06/05 09:22:18;;;;;;;2.97;2.00;;;14.60;55.60;;;;;;5073080;28;20218;-51
2023/06/05 09:25:01;;;;;;;3.30;2.33;;;14.60;55.60;;;;;;5072767;28;20215;-51
2023/06/05 09:27:31;;;;;;;2.97;2.00;;;14.60;55.60;;;;;;5072546;28;20537;-52
2023/06/05 09:30:06;;;;;;;3.55;2.50;;;14.60;55.60;;;;;;5072880;28;20685;-54
2023/06/05 09:32:39;;;;;;;2.83;2.10;;;14.60;55.60;;;;;;5092649;28;20267;-51
2023/06/05 09:35:11;;;;;;;2.80;2.25;;;14.60;55.60;;;;;;5092449;28;20279;-53
2023/06/05 09:37:45;;;;;;;2.42;2.05;;;14.60;55.60;;;;;;5092813;28;20248;-52
2023/06/05 09:40:19;;;;;;;2.75;2.00;;;14.60;55.70;;;;;;5092380;28;20681;-51
2023/06/05 09:42:49;;;;;;;2.70;2.03;;;14.60;56.30;;;;;;5092982;28;20222;-51
2023/06/05 09:45:20;;;;;;;3.63;2.35;;;14.60;55.70;;;;;;5093001;28;20225;-52
2023/06/05 09:47:51;;;;;;;2.75;2.28;;;14.60;55.60;;;;;;5092974;28;20194;-55
2023/06/05 09:50:27;;;;;;;2.20;2.00;;;14.60;55.60;;;;;;5092810;28;20671;-49
2023/06/05 09:53:01;;;;;;;2.65;2.15;;;14.60;55.60;;;;;;5092835;28;20197;-52
2023/06/05 09:55:33;;;;;;;2.92;2.28;;;14.60;55.60;;;;;;5092421;28;20225;-54
2023/06/05 09:58:13;;;;;;;3.10;2.20;;;14.60;55.60;;;;;;5078068;28;20206;-53
2023/06/05 10:00:44;;;;;;;4.10;2.08;;;14.60;55.60;;;;;;5072397;28;20197;-51
2023/06/05 10:03:20;;;;;;;2.85;2.05;;;14.60;55.60;;;;;;5072633;28;20603;-53
2023/06/05 10:05:50;;;;;;;2.90;2.17;;;14.60;55.60;;;;;;5080850;28;20706;-50
2023/06/05 10:08:21;;;;;;;3.15;2.35;;;14.60;55.60;;;;;;5092535;28;20194;-52
2023/06/05 10:10:54;;;;;;;2.78;2.38;;;14.60;55.60;;;;;;5092337;28;20201;-54
2023/06/05 10:13:24;;;;;;;2.95;2.20;;;14.60;55.60;;;;;;5085303;28;20195;-50
2023/06/05 10:15:56;;;;;;;2.60;2.20;;;14.60;55.60;;;;;;5071510;28;20690;-51
2023/06/05 10:18:27;;;;;;;3.70;2.33;;;14.60;55.70;;;;;;5072182;28;20191;-48
2023/06/05 10:20:58;;;;;;;3.72;2.40;;;14.60;55.70;;;;;;5072411;28;20202;-51
2023/06/05 10:23:30;;;;;;;3.97;2.58;;;14.60;55.70;;;;;;5072174;28;20206;-51
2023/06/05 10:26:07;;;;;;;3.42;2.28;;;14.60;55.70;;;;;;5072068;28;20214;-51
2023/06/05 10:28:48;;;;;;;3.65;2.70;;;14.60;55.70;;;;;;5071579;28;20642;-53
2023/06/05 10:31:28;;;;;;;4.10;3.00;;;14.60;55.60;;;;;;5071838;28;20199;-54
2023/06/05 10:34:38;;;;;;;2.83;2.10;;;14.60;55.60;;;;;;5087099;28;20190;-53
2023/06/05 10:37:31;;;;;;;3.38;2.33;;;14.60;55.60;;;;;;5063369;28;20717;-53
2023/06/05 10:40:04;;;;;;;3.00;2.50;;;14.60;55.50;;;;;;5091706;28;20201;-50
2023/06/05 10:42:37;;;;;;;3.67;2.70;;;14.60;55.50;;;;;;5091729;28;20225;-49
2023/06/05 10:45:08;;;;;;;2.78;2.13;;;14.60;55.60;;;;;;5091582;28;20241;-50
2023/06/05 10:47:54;;;;;;;3.35;2.60;;;14.60;56.20;;;;;;5092018;28;20198;-52
2023/06/05 10:50:31;;;;;;;2.65;2.35;;;14.60;55.60;;;;;;5092088;28;20688;-52
2023/06/05 10:53:02;;;;;;;2.72;2.13;;;14.60;55.60;;;;;;5092155;28;20233;-50
2023/06/05 10:55:45;;;;;;;3.60;2.38;;;14.60;55.60;;;;;;5091339;28;20210;-53
2023/06/05 10:58:17;;;;;;;3.15;2.38;;;14.60;55.70;;;;;;5075268;28;20230;-51
2023/06/05 11:01:19;;;;;;;2.92;2.35;;;14.60;55.70;;;;;;5071501;28;20202;-50
2023/06/05 11:04:00;;;;;;;3.35;2.25;;;14.60;55.70;;;;;;5071686;28;20650;-47
2023/06/05 11:06:31;;;;;;;3.65;2.42;;;14.60;55.70;;;;;;5080385;28;20186;-49
2023/06/05 11:09:15;;;;;;;3.08;2.78;;;14.60;55.60;;;;;;5091734;28;20190;-51
2023/06/05 11:12:04;;;;;;;3.78;2.42;;;14.60;55.70;;;;;;5091741;28;20205;-49
2023/06/05 11:14:50;;;;;;;3.08;2.10;;;14.60;55.70;;;;;;5091162;28;20220;-53
2023/06/05 11:17:34;;;;;;;2.50;2.22;;;14.60;55.60;;;;;;5091123;28;20194;-51
2023/06/05 11:20:07;;;;;;;3.33;2.60;;;14.60;55.60;;;;;;5076370;28;20202;-53
2023/06/05 11:23:10;;;;;;;3.42;2.63;;;14.60;55.60;;;;;;5071563;28;20226;-52
2023/06/05 11:25:41;;;;;;;3.08;2.42;;;14.60;55.60;;;;;;5071557;28;20253;-51
2023/06/05 11:28:12;;;;;;;4.32;2.75;;;14.60;55.60;;;;;;5071556;28;20198;-52
2023/06/05 11:30:46;;;;;;;3.15;2.25;;;14.60;55.60;;;;;;5071113;28;20199;-52
2023/06/05 11:33:18;;;;;;;3.55;2.78;;;14.60;55.60;;;;;;5088659;28;20194;-51
2023/06/05 11:35:50;;;;;;;3.45;2.50;;;14.60;55.60;;;;;;5089794;28;20210;-54
2023/06/05 11:38:21;;;;;;;4.30;2.90;;;14.60;55.60;;;;;;5091364;28;20637;-54
2023/06/05 11:40:52;;;;;;;3.58;2.88;;;14.60;55.60;;;;;;5091464;28;20255;-52
2023/06/05 11:43:23;;;;;;;5.18;2.80;;;14.60;55.70;;;;;;5095231;28;20218;-51
2023/06/05 11:45:57;;;;;;;4.32;2.63;;;14.60;55.70;;;;;;5095154;28;20217;-53
2023/06/05 11:48:28;;;;;;;3.28;2.45;;;14.60;55.70;;;;;;5095368;28;20197;-53
2023/06/05 11:51:00;;;;;;;3.72;2.58;;;14.60;55.60;;;;;;5095232;28;20202;-52
2023/06/05 11:53:32;;;;;;;4.75;2.92;;;14.60;55.60;;;;;;5095290;28;20222;-52
2023/06/05 11:56:09;;;;;;;4.18;2.80;;;14.60;55.60;;;;;;5095040;28;20214;-50
2023/06/05 11:58:41;;;;;;;4.65;3.10;;;14.60;55.60;;;;;;5075292;28;20198;-51
2023/06/05 12:01:17;;;;;;;3.97;2.58;;;14.60;55.60;;;;;;5074423;28;20229;-51
2023/06/05 12:03:48;;;;;;;4.32;2.97;;;14.60;55.60;;;;;;5074704;28;20222;-52
2023/06/05 12:06:21;;;;;;;3.95;2.70;;;14.60;55.60;;;;;;5074708;28;20203;-52
2023/06/05 12:08:52;;;;;;;4.07;3.08;;;14.60;55.60;;;;;;5074701;28;20191;-55
2023/06/05 12:11:28;;;;;;;5.28;3.38;;;14.60;55.60;;;;;;5074743;28;20195;-54
2023/06/05 12:13:59;;;;;;;3.50;2.63;;;14.60;55.60;;;;;;5074522;28;20612;-49
2023/06/05 12:16:38;;;;;;;3.83;2.63;;;14.50;55.60;;;;;;5088935;28;20197;-55
2023/06/05 12:19:16;;;;;;;3.88;2.70;;;14.50;55.60;;;;;;5095010;28;20199;-53
2023/06/05 12:21:50;;;;;;;4.55;2.85;;;14.60;55.60;;;;;;5093520;28;20749;-53
2023/06/05 12:24:29;;;;;;;3.28;2.67;;;14.60;55.60;;;;;;5079432;28;20230;-52
2023/06/05 12:27:00;;;;;;;4.03;2.65;;;14.60;55.60;;;;;;5074643;28;20203;-52
2023/06/05 12:29:32;;;;;;;4.72;2.90;;;14.60;55.60;;;;;;5074347;28;20191;-53
2023/06/05 12:32:05;;;;;;;4.82;3.42;;;14.60;55.60;;;;;;5079904;28;20194;-53
2023/06/05 12:34:47;;;;;;;3.95;2.83;;;14.60;55.60;;;;;;5094636;28;20218;-56
2023/06/05 12:37:27;;;;;;;4.25;2.80;;;14.60;55.60;;;;;;5095358;28;20205;-52
2023/06/05 12:39:58;;;;;;;3.58;2.75;;;14.60;55.60;;;;;;5094558;28;20720;-56
2023/06/05 12:42:29;;;;;;;3.63;2.40;;;14.60;55.60;;;;;;5094063;28;20214;-50
2023/06/05 12:45:00;;;;;;;3.50;2.50;;;14.60;55.60;;;;;;5094378;28;20211;-53
2023/06/05 12:47:32;;;;;;;3.72;2.90;;;14.60;55.60;;;;;;5094484;28;20244;-51
2023/06/05 12:50:03;;;;;;;4.63;2.65;;;14.50;55.60;;;;;;5094348;28;20202;-56
2023/06/05 12:52:34;;;;;;;3.80;2.95;;;14.50;55.60;;;;;;5093638;28;20214;-55
2023/06/05 12:55:05;;;;;;;3.70;2.70;;;14.60;55.60;;;;;;5094276;28;20690;-51
2023/06/05 12:57:36;;;;;;;4.78;3.28;;;14.60;55.60;;;;;;5083354;28;20281;-53
2023/06/05 13:00:12;;;;;;;3.95;2.58;;;14.60;55.60;;;;;;5074173;28;20205;-55
2023/06/05 13:02:47;;;;;;;2.58;2.22;;;14.50;55.50;;;;;;5073469;28;20611;-47
2023/06/05 13:05:18;;;;;;;3.15;2.33;;;14.60;55.60;;;;;;5073378;28;20597;-51
2023/06/05 13:07:49;;;;;;;4.18;2.95;;;14.60;55.60;;;;;;5072996;28;20199;-48
2023/06/05 13:10:20;;;;;;;3.42;2.38;;;14.50;55.60;;;;;;5074896;28;20508;-50
2023/06/05 13:12:51;;;;;;;4.55;3.00;;;14.60;55.60;;;;;;5093031;28;20205;-51
2023/06/05 13:15:21;;;;;;;3.05;2.60;;;14.60;55.60;;;;;;5091543;28;20218;-54